Time;durP1;ratioP1;P1;durP2;ratioP2;P2;SDS_P1;SDS_P2;PMS_P1;PMS_P2;Temp;Humidity;BMP_temperature;BMP_pressure;BME280_temperature;BME280_humidity;BME280_pressure;Samples;Min_cycle;Max_cycle;Signal;HPM_P1;HPM_P2
2021/01/14 00:00:47;;;;;;;0.40;0.40;;;1.30;99.90;;;;;;4400730;32;20066;-76
2021/01/14 00:03:13;;;;;;;0.30;0.30;;;1.30;99.90;;;;;;4400266;32;20086;-75
2021/01/14 00:05:40;;;;;;;0.80;0.80;;;1.30;99.90;;;;;;4400434;32;20492;-75
2021/01/14 00:08:06;;;;;;;0.40;0.40;;;1.30;99.90;;;;;;4399777;32;20098;-75
2021/01/14 00:10:31;;;;;;;0.30;0.30;;;1.30;99.90;;;;;;4400344;32;20062;-75
2021/01/14 00:12:57;;;;;;;0.40;0.40;;;1.40;99.90;;;;;;4414977;32;20086;-75
2021/01/14 00:15:23;;;;;;;0.37;0.37;;;1.30;99.90;;;;;;4415498;32;20061;-75
2021/01/14 00:17:48;;;;;;;0.30;0.30;;;1.30;99.90;;;;;;4415921;32;20074;-75
2021/01/14 00:20:16;;;;;;;0.30;0.30;;;1.30;99.90;;;;;;4414279;32;20124;-76
2021/01/14 00:22:42;;;;;;;0.65;0.65;;;1.30;99.90;;;;;;4415028;32;20124;-75
2021/01/14 00:25:10;;;;;;;0.30;0.30;;;1.20;99.90;;;;;;4414879;32;20105;-76
2021/01/14 00:27:36;;;;;;;0.30;0.30;;;1.30;99.90;;;;;;4415600;32;20082;-75
2021/01/14 00:30:03;;;;;;;0.35;0.35;;;1.20;99.90;;;;;;4404735;32;20065;-75
2021/01/14 00:32:29;;;;;;;0.30;0.30;;;1.10;99.90;;;;;;4399885;32;20074;-76
2021/01/14 00:34:54;;;;;;;0.30;0.30;;;1.00;99.90;;;;;;4400082;32;20070;-76
2021/01/14 00:37:51;;;;;;;0.30;0.30;;;1.00;99.90;;;;;;4401069;32;20069;-76
2021/01/14 00:40:05;;;;;;;0.50;0.50;;;0.90;99.90;;;;;;4398765;32;20073;-76
2021/01/14 00:42:31;;;;;;;0.40;0.40;;;0.90;99.90;;;;;;4399642;32;20477;-75
2021/01/14 00:44:56;;;;;;;1.85;0.75;;;0.80;99.90;;;;;;4399585;32;20374;-75
2021/01/14 00:47:22;;;;;;;0.50;0.50;;;0.80;99.90;;;;;;4399534;32;20066;-76
2021/01/14 00:49:47;;;;;;;0.30;0.30;;;0.80;99.90;;;;;;4399430;32;20078;-75
2021/01/14 00:52:13;;;;;;;0.30;0.30;;;0.90;99.90;;;;;;4400007;32;20120;-76
2021/01/14 00:54:40;;;;;;;0.40;0.40;;;0.90;99.90;;;;;;4399704;32;20456;-74
2021/01/14 00:57:08;;;;;;;0.30;0.30;;;1.00;99.90;;;;;;4399981;32;20413;-76
2021/01/14 00:59:34;;;;;;;0.30;0.30;;;1.10;99.90;;;;;;4399473;32;20074;-76
2021/01/14 01:01:59;;;;;;;0.82;0.82;;;1.10;99.90;;;;;;4399960;32;20129;-74
2021/01/14 01:04:25;;;;;;;0.30;0.30;;;1.10;99.90;;;;;;4399604;32;20073;-74
2021/01/14 01:06:50;;;;;;;0.57;0.57;;;1.10;99.90;;;;;;4392562;32;20078;-74
2021/01/14 01:09:16;;;;;;;0.30;0.30;;;1.00;99.90;;;;;;4384164;32;20054;-75
2021/01/14 01:11:41;;;;;;;0.40;0.40;;;1.00;99.90;;;;;;4398073;32;20073;-75
2021/01/14 01:14:07;;;;;;;0.50;0.50;;;1.00;99.90;;;;;;4414353;32;20066;-75
2021/01/14 01:16:32;;;;;;;0.30;0.30;;;1.10;99.90;;;;;;4414820;32;20138;-75
2021/01/14 01:18:58;;;;;;;0.40;0.40;;;1.10;99.90;;;;;;4414640;32;20070;-75
2021/01/14 01:21:24;;;;;;;0.40;0.40;;;1.20;99.90;;;;;;4413415;32;20417;-75
2021/01/14 01:23:49;;;;;;;0.47;0.47;;;1.20;99.90;;;;;;4414543;32;20139;-75
2021/01/14 01:26:16;;;;;;;0.40;0.40;;;1.30;99.90;;;;;;4414409;32;20392;-75
2021/01/14 01:28:42;;;;;;;0.40;0.40;;;1.20;99.90;;;;;;4414432;32;20499;-75
2021/01/14 01:31:10;;;;;;;0.30;0.30;;;1.20;99.90;;;;;;4414560;32;20086;-75
2021/01/14 01:33:35;;;;;;;0.40;0.40;;;1.20;99.90;;;;;;4414645;32;20066;-75
2021/01/14 01:36:01;;;;;;;0.30;0.30;;;1.20;99.90;;;;;;4414931;32;20069;-75
2021/01/14 01:38:26;;;;;;;0.30;0.30;;;1.20;99.90;;;;;;4413949;32;20073;-75
2021/01/14 01:40:57;;;;;;;0.40;0.40;;;1.20;99.90;;;;;;4413708;32;20590;-75
2021/01/14 01:43:24;;;;;;;0.30;0.30;;;1.20;99.90;;;;;;4414333;32;20073;-75
2021/01/14 01:45:49;;;;;;;0.30;0.30;;;1.30;99.90;;;;;;4414222;32;20073;-75
2021/01/14 01:48:16;;;;;;;0.37;0.37;;;1.30;99.90;;;;;;4414618;32;20073;-75
2021/01/14 01:50:43;;;;;;;0.30;0.30;;;1.40;99.90;;;;;;4413755;32;20070;-75
2021/01/14 01:53:10;;;;;;;0.32;0.32;;;1.40;99.90;;;;;;4413668;32;20066;-75
2021/01/14 01:55:36;;;;;;;0.62;0.62;;;1.40;99.90;;;;;;4414368;32;20081;-75
2021/01/14 01:58:01;;;;;;;0.30;0.30;;;1.40;99.90;;;;;;4413912;32;20513;-75
2021/01/14 02:00:27;;;;;;;0.30;0.30;;;1.40;99.90;;;;;;4415231;32;20435;-75
2021/01/14 02:02:52;;;;;;;0.40;0.40;;;1.50;99.90;;;;;;4414073;32;20166;-75
2021/01/14 02:05:18;;;;;;;0.35;0.35;;;1.50;99.90;;;;;;4415050;32;20069;-75
2021/01/14 02:08:06;;;;;;;0.30;0.30;;;1.50;99.90;;;;;;4402323;32;20082;-75
2021/01/14 02:10:35;;;;;;;0.32;0.32;;;1.60;99.90;;;;;;4397483;32;20067;-75
2021/01/14 02:13:20;;;;;;;0.30;0.30;;;1.70;99.90;;;;;;4413633;32;21969;-75
2021/01/14 02:15:48;;;;;;;0.40;0.40;;;1.80;99.90;;;;;;4409572;32;20409;-75
2021/01/14 02:18:17;;;;;;;0.30;0.30;;;1.80;99.90;;;;;;4398293;32;20061;-75
2021/01/14 02:20:46;;;;;;;0.30;0.30;;;1.80;99.90;;;;;;4398684;32;20090;-75
2021/01/14 02:23:34;;;;;;;0.30;0.30;;;1.80;99.90;;;;;;4399126;32;20129;-75
2021/01/14 02:26:20;;;;;;;0.40;0.40;;;1.80;99.90;;;;;;4397920;32;20074;-75
2021/01/14 02:28:47;;;;;;;0.30;0.30;;;1.90;99.90;;;;;;4398347;32;20112;-75
2021/01/14 02:31:14;;;;;;;0.37;0.37;;;1.80;99.90;;;;;;4399791;32;20078;-75
2021/01/14 02:33:40;;;;;;;0.40;0.40;;;1.80;99.90;;;;;;4401203;32;20499;-75
2021/01/14 02:36:06;;;;;;;0.30;0.30;;;1.90;99.90;;;;;;4401192;32;20086;-75
2021/01/14 02:38:33;;;;;;;0.30;0.30;;;2.00;99.90;;;;;;4401480;32;20128;-75
2021/01/14 02:40:58;;;;;;;0.32;0.32;;;2.00;99.90;;;;;;4400633;32;20077;-75
2021/01/14 02:43:24;;;;;;;0.40;0.40;;;2.10;99.90;;;;;;4401132;32;20157;-75
2021/01/14 02:45:50;;;;;;;0.35;0.35;;;2.00;99.90;;;;;;4401663;32;20078;-75
2021/01/14 02:48:20;;;;;;;0.35;0.35;;;2.00;99.90;;;;;;4401313;32;20066;-75
2021/01/14 02:50:51;;;;;;;0.40;0.40;;;2.00;99.90;;;;;;4401121;32;20062;-75
2021/01/14 02:53:17;;;;;;;;;;;2.00;99.90;;;;;;4401302;32;20130;-74
2021/01/14 02:55:43;;;;;;;0.55;0.55;;;2.00;99.90;;;;;;4401612;32;19965;-75
2021/01/14 02:58:09;;;;;;;0.30;0.30;;;2.10;99.90;;;;;;4401709;32;20555;-75
2021/01/14 03:00:34;;;;;;;0.30;0.30;;;2.00;99.90;;;;;;4400807;32;20053;-75
2021/01/14 03:03:00;;;;;;;0.30;0.30;;;2.00;99.90;;;;;;4400958;32;20569;-75
2021/01/14 03:05:25;;;;;;;0.43;0.43;;;2.00;99.90;;;;;;4401062;32;20055;-75
2021/01/14 03:07:51;;;;;;;0.30;0.30;;;1.90;99.90;;;;;;4387004;32;20062;-75
2021/01/14 03:10:16;;;;;;;0.40;0.40;;;1.90;99.90;;;;;;4386025;32;20055;-75
2021/01/14 03:12:42;;;;;;;0.40;0.40;;;1.90;99.90;;;;;;4411449;32;20089;-75
2021/01/14 03:15:08;;;;;;;0.57;0.57;;;1.90;99.90;;;;;;4415500;32;20135;-75
2021/01/14 03:17:36;;;;;;;0.30;0.30;;;1.90;99.90;;;;;;4416994;32;20069;-75
2021/01/14 03:20:04;;;;;;;0.37;0.37;;;1.80;99.90;;;;;;4416141;32;20053;-75
2021/01/14 03:22:29;;;;;;;0.30;0.30;;;1.80;99.90;;;;;;4415791;32;20507;-75
2021/01/14 03:24:55;;;;;;;0.30;0.30;;;1.80;99.90;;;;;;4415201;32;20128;-74
2021/01/14 03:27:20;;;;;;;0.30;0.30;;;1.80;99.90;;;;;;4415749;32;20062;-75
2021/01/14 03:29:46;;;;;;;0.30;0.30;;;1.80;99.90;;;;;;4415081;32;20057;-75
2021/01/14 03:32:11;;;;;;;0.30;0.30;;;1.90;99.90;;;;;;4415577;32;20097;-75
2021/01/14 03:34:37;;;;;;;0.40;0.40;;;2.00;99.90;;;;;;4416370;32;20058;-75
2021/01/14 03:37:04;;;;;;;0.40;0.40;;;2.00;99.90;;;;;;4415645;32;20463;-75
2021/01/14 03:39:29;;;;;;;0.28;0.28;;;2.00;99.90;;;;;;4414617;32;20128;-75
2021/01/14 03:41:56;;;;;;;0.32;0.32;;;2.10;99.90;;;;;;4415521;32;20499;-75
2021/01/14 03:44:22;;;;;;;0.40;0.40;;;2.10;99.90;;;;;;4414870;32;20120;-74
2021/01/14 03:46:49;;;;;;;0.30;0.30;;;2.00;99.90;;;;;;4415336;32;20066;-74
2021/01/14 03:49:15;;;;;;;0.30;0.30;;;2.00;99.90;;;;;;4414805;32;20078;-74
2021/01/14 03:51:44;;;;;;;0.30;0.30;;;2.00;99.90;;;;;;4414876;32;20061;-74
2021/01/14 03:54:09;;;;;;;0.30;0.30;;;2.00;99.90;;;;;;4414375;32;20083;-74
2021/01/14 03:56:37;;;;;;;0.45;0.45;;;2.00;99.90;;;;;;4414891;32;20062;-75
2021/01/14 03:59:03;;;;;;;0.30;0.30;;;2.10;99.90;;;;;;4414838;32;20053;-74
2021/01/14 04:01:28;;;;;;;0.30;0.30;;;2.00;99.90;;;;;;4415539;32;20463;-74
2021/01/14 04:03:54;;;;;;;0.30;0.30;;;2.10;99.90;;;;;;4415005;32;20081;-74
2021/01/14 04:06:20;;;;;;;0.30;0.30;;;2.10;99.90;;;;;;4412497;32;20534;-73
2021/01/14 04:08:45;;;;;;;0.30;0.30;;;2.10;99.90;;;;;;4398934;32;20170;-74
2021/01/14 04:11:11;;;;;;;0.30;0.30;;;2.00;99.90;;;;;;4403002;32;20090;-74
2021/01/14 04:13:37;;;;;;;0.30;0.30;;;2.10;99.90;;;;;;4414746;32;20058;-74
2021/01/14 04:16:02;;;;;;;0.30;0.30;;;2.00;99.90;;;;;;4415283;32;20061;-74
2021/01/14 04:18:28;;;;;;;0.40;0.40;;;2.10;99.90;;;;;;4416198;32;20462;-74
2021/01/14 04:20:53;;;;;;;0.30;0.30;;;2.10;99.90;;;;;;4414307;32;20073;-74
2021/01/14 04:23:19;;;;;;;0.47;0.47;;;2.10;99.90;;;;;;4414429;32;20054;-74
2021/01/14 04:25:45;;;;;;;0.28;0.28;;;2.10;99.90;;;;;;4415118;32;20069;-74
2021/01/14 04:28:10;;;;;;;0.40;0.40;;;2.00;99.90;;;;;;4415398;32;20058;-74
2021/01/14 04:30:36;;;;;;;0.43;0.43;;;2.10;99.90;;;;;;4414833;32;20061;-74
2021/01/14 04:33:11;;;;;;;0.55;0.55;;;2.10;99.90;;;;;;4415099;32;20086;-74
2021/01/14 04:35:45;;;;;;;0.40;0.40;;;2.10;99.90;;;;;;4414345;32;20077;-74
2021/01/14 04:38:11;;;;;;;0.60;0.60;;;2.10;99.90;;;;;;4414440;32;20511;-74
2021/01/14 04:40:36;;;;;;;0.30;0.30;;;2.10;99.90;;;;;;4413958;32;20073;-74
2021/01/14 04:43:03;;;;;;;0.40;0.40;;;2.20;99.90;;;;;;4414494;32;20065;-74
2021/01/14 04:45:29;;;;;;;0.40;0.40;;;2.10;99.90;;;;;;4415572;32;20077;-74
2021/01/14 04:47:54;;;;;;;0.30;0.30;;;2.20;99.90;;;;;;4414334;32;20077;-74
2021/01/14 04:50:26;;;;;;;0.30;0.30;;;2.20;99.90;;;;;;4414429;32;20173;-74
2021/01/14 04:52:54;;;;;;;0.40;0.40;;;2.20;99.90;;;;;;4413891;32;20081;-74
2021/01/14 04:55:21;;;;;;;0.40;0.40;;;2.20;99.90;;;;;;4414600;32;20535;-74
2021/01/14 04:57:50;;;;;;;0.50;0.50;;;2.20;99.90;;;;;;4414669;32;20065;-75
2021/01/14 05:00:17;;;;;;;0.30;0.30;;;2.30;99.90;;;;;;4415841;32;20124;-74
2021/01/14 05:02:53;;;;;;;0.30;0.30;;;2.30;99.90;;;;;;4416023;32;20089;-74
2021/01/14 05:05:22;;;;;;;0.40;0.40;;;2.30;99.90;;;;;;4414768;32;20070;-74
2021/01/14 05:08:02;;;;;;;2.78;0.88;;;2.30;99.90;;;;;;4401727;32;20078;-74
2021/01/14 05:10:30;;;;;;;0.30;0.30;;;2.30;99.90;;;;;;4399558;32;20129;-74
2021/01/14 05:12:56;;;;;;;0.30;0.30;;;2.40;99.90;;;;;;4414540;32;20404;-75
2021/01/14 05:15:25;;;;;;;0.40;0.40;;;2.40;99.90;;;;;;4414691;32;20129;-75
2021/01/14 05:17:51;;;;;;;0.77;0.77;;;2.30;99.90;;;;;;4414861;32;20140;-75
2021/01/14 05:20:16;;;;;;;1.20;0.68;;;2.40;99.90;;;;;;4414399;32;20073;-75
2021/01/14 05:22:45;;;;;;;0.50;0.50;;;2.40;99.90;;;;;;4413981;32;20550;-74
2021/01/14 05:25:11;;;;;;;0.30;0.30;;;2.40;99.90;;;;;;4415041;32;20519;-75
2021/01/14 05:27:37;;;;;;;0.57;0.57;;;2.30;99.90;;;;;;4414648;32;20108;-75
2021/01/14 05:30:08;;;;;;;0.40;0.40;;;2.30;99.90;;;;;;4414470;32;20080;-75
2021/01/14 05:32:44;;;;;;;0.50;0.50;;;2.40;99.90;;;;;;4414154;32;20425;-75
2021/01/14 05:35:12;;;;;;;0.43;0.43;;;2.30;99.90;;;;;;4415022;32;20070;-74
2021/01/14 05:37:42;;;;;;;0.60;0.60;;;2.30;99.90;;;;;;4414113;32;20066;-75
2021/01/14 05:40:11;;;;;;;0.40;0.40;;;2.50;99.90;;;;;;4414339;32;20502;-75
2021/01/14 05:42:37;;;;;;;2.80;1.17;;;2.50;99.90;;;;;;4413815;32;20113;-75
2021/01/14 05:45:03;;;;;;;0.50;0.50;;;2.50;99.90;;;;;;4414371;32;20073;-75
2021/01/14 05:47:29;;;;;;;2.62;0.70;;;2.50;99.90;;;;;;4413735;32;20069;-75
2021/01/14 05:49:58;;;;;;;0.40;0.40;;;2.50;99.90;;;;;;4414117;32;20061;-75
2021/01/14 05:52:25;;;;;;;0.50;0.50;;;2.50;99.90;;;;;;4413456;32;20057;-74
2021/01/14 05:55:04;;;;;;;0.65;0.65;;;2.40;99.90;;;;;;4413653;32;20069;-75
2021/01/14 05:57:31;;;;;;;0.50;0.50;;;2.40;99.90;;;;;;4415006;32;20085;-75
2021/01/14 05:59:59;;;;;;;3.53;1.73;;;2.40;99.90;;;;;;4413971;32;20120;-74
2021/01/14 06:02:27;;;;;;;0.50;0.50;;;2.50;99.90;;;;;;4407384;32;20078;-75
2021/01/14 06:04:53;;;;;;;0.82;0.82;;;2.50;99.90;;;;;;4409212;32;20069;-75
2021/01/14 06:07:19;;;;;;;4.37;2.55;;;2.50;99.90;;;;;;4404398;32;20090;-75
2021/01/14 06:09:45;;;;;;;0.60;0.60;;;2.50;99.90;;;;;;4411304;32;20073;-75
2021/01/14 06:12:12;;;;;;;0.68;0.60;;;2.40;99.90;;;;;;4404432;32;20078;-74
2021/01/14 06:14:38;;;;;;;0.30;0.30;;;2.30;99.90;;;;;;4399044;32;20567;-74
2021/01/14 06:17:06;;;;;;;0.40;0.40;;;2.40;99.90;;;;;;4398739;32;20129;-75
2021/01/14 06:19:32;;;;;;;1.35;1.10;;;2.50;99.90;;;;;;4399410;32;20527;-75
2021/01/14 06:21:58;;;;;;;0.43;0.43;;;2.60;99.90;;;;;;4398474;32;20116;-75
2021/01/14 06:24:26;;;;;;;0.30;0.30;;;2.50;99.90;;;;;;4398147;32;20070;-75
2021/01/14 06:26:55;;;;;;;0.40;0.40;;;2.50;99.90;;;;;;4398620;32;20070;-75
2021/01/14 06:29:28;;;;;;;0.57;0.57;;;2.60;99.90;;;;;;4398727;32;20074;-75
2021/01/14 06:32:12;;;;;;;1.05;1.05;;;2.60;99.90;;;;;;4398760;32;20531;-75
2021/01/14 06:34:40;;;;;;;0.40;0.40;;;2.50;99.90;;;;;;4398206;32;20087;-75
2021/01/14 06:37:09;;;;;;;0.30;0.30;;;2.50;99.90;;;;;;4398729;32;20546;-75
2021/01/14 06:39:47;;;;;;;0.60;0.60;;;2.50;99.90;;;;;;4397863;32;20077;-75
2021/01/14 06:42:30;;;;;;;0.45;0.45;;;2.40;99.90;;;;;;4398400;32;20507;-75
2021/01/14 06:44:59;;;;;;;0.55;0.55;;;2.30;99.90;;;;;;4398713;32;20129;-75
2021/01/14 06:47:53;;;;;;;0.50;0.50;;;2.30;99.90;;;;;;4398775;32;20070;-75
2021/01/14 06:50:21;;;;;;;0.30;0.30;;;2.30;99.90;;;;;;4397206;32;20082;-75
2021/01/14 06:53:11;;;;;;;0.40;0.40;;;2.30;99.90;;;;;;4397853;32;20062;-75
2021/01/14 06:55:37;;;;;;;0.60;0.60;;;2.40;99.90;;;;;;4397887;32;20082;-75
2021/01/14 06:58:14;;;;;;;0.30;0.30;;;2.40;99.90;;;;;;4408371;32;20061;-75
2021/01/14 07:00:42;;;;;;;0.68;0.68;;;2.40;99.90;;;;;;4413823;32;20061;-75
2021/01/14 07:03:19;;;;;;;2.22;1.02;;;2.50;99.90;;;;;;4413624;32;20066;-75
2021/01/14 07:06:05;;;;;;;0.60;0.60;;;2.50;99.90;;;;;;4413660;32;20068;-75
2021/01/14 07:08:57;;;;;;;0.30;0.30;;;2.50;99.90;;;;;;4382390;32;20129;-75
2021/01/14 07:11:30;;;;;;;1.23;0.93;;;2.50;99.90;;;;;;4391564;32;20134;-75
2021/01/14 07:14:04;;;;;;;0.32;0.32;;;2.40;99.90;;;;;;4413374;32;20083;-75
2021/01/14 07:16:33;;;;;;;0.40;0.40;;;2.40;99.90;;;;;;4413969;32;20428;-75
2021/01/14 07:18:59;;;;;;;0.40;0.40;;;2.40;99.90;;;;;;4409578;32;20130;-74
2021/01/14 07:21:45;;;;;;;0.62;0.62;;;2.30;99.90;;;;;;4386140;32;20496;-75
2021/01/14 07:24:18;;;;;;;0.90;0.90;;;2.30;99.90;;;;;;4383313;32;20122;-75
2021/01/14 07:26:45;;;;;;;3.30;0.82;;;2.30;99.90;;;;;;4394111;32;20069;-75
2021/01/14 07:29:13;;;;;;;0.60;0.60;;;2.30;99.90;;;;;;4400543;32;20507;-75
2021/01/14 07:31:48;;;;;;;0.40;0.40;;;2.30;99.90;;;;;;4400535;32;20070;-74
2021/01/14 07:34:39;;;;;;;0.40;0.40;;;2.20;99.90;;;;;;4400609;32;20133;-75
2021/01/14 07:37:07;;;;;;;2.25;1.33;;;2.30;99.90;;;;;;4399352;32;20078;-75
2021/01/14 07:39:52;;;;;;;0.50;0.50;;;2.40;99.90;;;;;;4399591;32;20074;-76
2021/01/14 07:42:21;;;;;;;0.40;0.40;;;2.30;99.90;;;;;;4400316;32;20133;-74
2021/01/14 07:44:50;;;;;;;0.40;0.40;;;2.20;99.90;;;;;;4400548;32;20535;-74
2021/01/14 07:47:23;;;;;;;0.40;0.40;;;2.10;99.90;;;;;;4401762;32;20085;-75
2021/01/14 07:49:49;;;;;;;0.50;0.50;;;2.10;99.90;;;;;;4399520;32;20117;-76
2021/01/14 07:52:30;;;;;;;0.40;0.40;;;2.10;99.90;;;;;;4400204;32;20090;-75
2021/01/14 07:55:02;;;;;;;1.87;1.67;;;2.00;99.90;;;;;;4399711;32;20101;-75
2021/01/14 07:57:28;;;;;;;0.30;0.30;;;2.00;99.90;;;;;;4400390;32;20082;-75
2021/01/14 07:59:58;;;;;;;0.70;0.70;;;2.10;99.90;;;;;;4399865;32;20102;-75
2021/01/14 08:02:24;;;;;;;0.55;0.55;;;2.00;99.90;;;;;;4400565;32;20117;-75
2021/01/14 08:04:52;;;;;;;0.40;0.40;;;2.10;99.90;;;;;;4399460;32;20071;-75
2021/01/14 08:07:22;;;;;;;0.85;0.85;;;2.00;99.90;;;;;;4397012;32;20077;-74
2021/01/14 08:09:49;;;;;;;0.40;0.40;;;2.10;99.90;;;;;;4399752;32;20062;-75
2021/01/14 08:12:15;;;;;;;0.40;0.40;;;2.20;99.90;;;;;;4406931;32;20075;-74
2021/01/14 08:14:40;;;;;;;0.30;0.30;;;2.30;99.90;;;;;;4400003;32;20124;-74
2021/01/14 08:17:26;;;;;;;0.60;0.60;;;2.30;99.90;;;;;;4400361;32;20069;-74
2021/01/14 08:19:54;;;;;;;0.88;0.88;;;2.30;99.90;;;;;;4398477;32;20062;-74
2021/01/14 08:22:20;;;;;;;0.55;0.55;;;2.30;99.90;;;;;;4400153;32;20444;-74
2021/01/14 08:24:48;;;;;;;1.73;1.15;;;2.30;99.90;;;;;;4399712;32;20058;-74
2021/01/14 08:27:16;;;;;;;0.47;0.47;;;2.40;99.90;;;;;;4384922;32;20575;-74
2021/01/14 08:30:03;;;;;;;0.35;0.35;;;2.50;99.90;;;;;;4396501;32;20066;-75
2021/01/14 08:32:31;;;;;;;0.30;0.30;;;2.50;99.90;;;;;;4399171;32;20502;-75
2021/01/14 08:34:59;;;;;;;0.65;0.60;;;2.50;99.90;;;;;;4398328;32;20465;-76
2021/01/14 08:37:28;;;;;;;0.30;0.30;;;2.50;99.90;;;;;;4399319;32;20460;-75
2021/01/14 08:39:58;;;;;;;0.40;0.40;;;2.60;99.90;;;;;;4396979;32;20094;-75
2021/01/14 08:42:30;;;;;;;0.45;0.45;;;2.60;99.90;;;;;;4393650;32;142613;-77
2021/01/14 08:45:05;;;;;;;0.55;0.55;;;2.60;99.90;;;;;;4395482;32;20484;-75
2021/01/14 08:47:53;;;;;;;0.30;0.30;;;2.60;99.90;;;;;;4397790;32;20059;-76
2021/01/14 08:50:31;;;;;;;0.40;0.40;;;2.70;99.90;;;;;;4397588;32;20077;-75
2021/01/14 08:52:57;;;;;;;0.37;0.32;;;2.70;99.90;;;;;;4397579;32;20366;-75
2021/01/14 08:55:23;;;;;;;0.57;0.57;;;2.80;99.90;;;;;;4396724;32;20070;-75
2021/01/14 08:57:51;;;;;;;0.30;0.30;;;2.80;99.90;;;;;;4393518;32;20140;-76
2021/01/14 09:00:17;;;;;;;0.35;0.35;;;2.80;99.90;;;;;;4397094;32;20816;-75
2021/01/14 09:02:43;;;;;;;0.30;0.30;;;2.80;99.90;;;;;;4393262;32;20106;-75
2021/01/14 09:05:10;;;;;;;0.40;0.40;;;2.90;99.90;;;;;;4398927;32;20070;-76
2021/01/14 09:07:36;;;;;;;0.60;0.60;;;2.90;99.90;;;;;;4397792;32;20074;-75
2021/01/14 09:10:01;;;;;;;0.40;0.40;;;3.00;99.90;;;;;;4398976;32;20069;-76
2021/01/14 09:12:27;;;;;;;0.30;0.30;;;3.10;99.90;;;;;;4411052;32;20564;-75
2021/01/14 09:14:52;;;;;;;0.50;0.50;;;3.10;99.90;;;;;;4399252;32;20126;-75
2021/01/14 09:17:18;;;;;;;0.70;0.70;;;3.20;99.90;;;;;;4399069;32;20767;-76
2021/01/14 09:19:52;;;;;;;0.50;0.50;;;3.20;99.90;;;;;;4398240;32;20073;-76
2021/01/14 09:22:26;;;;;;;0.30;0.30;;;3.20;99.90;;;;;;4395703;32;20066;-76
2021/01/14 09:24:52;;;;;;;1.55;0.68;;;3.20;99.90;;;;;;4398117;32;20090;-76
2021/01/14 09:27:17;;;;;;;0.40;0.40;;;3.20;99.90;;;;;;4399621;32;20062;-75
2021/01/14 09:29:43;;;;;;;0.30;0.30;;;3.20;99.90;;;;;;4399858;32;20078;-75
2021/01/14 09:32:13;;;;;;;3.60;1.65;;;3.10;99.90;;;;;;4398826;32;20073;-75
2021/01/14 09:34:39;;;;;;;0.50;0.50;;;3.20;99.90;;;;;;4398939;32;20065;-76
2021/01/14 09:37:19;;;;;;;0.32;0.32;;;3.30;99.90;;;;;;4399742;32;20120;-76
2021/01/14 09:39:46;;;;;;;0.40;0.40;;;3.20;99.90;;;;;;4399844;32;20083;-75
2021/01/14 09:42:12;;;;;;;0.30;0.30;;;3.30;99.90;;;;;;4398330;32;20413;-75
2021/01/14 09:44:38;;;;;;;0.30;0.30;;;3.20;99.90;;;;;;4398306;32;20082;-75
2021/01/14 09:47:04;;;;;;;0.20;0.20;;;3.20;99.90;;;;;;4397059;32;20071;-74
2021/01/14 09:49:29;;;;;;;0.50;0.50;;;3.20;99.90;;;;;;4396602;32;20409;-74
2021/01/14 09:51:56;;;;;;;0.80;0.70;;;3.20;99.90;;;;;;4398370;32;20073;-75
2021/01/14 09:54:23;;;;;;;0.40;0.40;;;3.30;99.90;;;;;;4395830;32;20102;-75
2021/01/14 09:56:52;;;;;;;0.40;0.40;;;3.30;99.90;;;;;;4397302;32;20066;-76
2021/01/14 09:59:26;;;;;;;0.60;0.60;;;3.20;99.90;;;;;;4397711;32;20069;-75
2021/01/14 10:01:58;;;;;;;0.37;0.37;;;3.30;99.90;;;;;;4395095;32;20061;-75
2021/01/14 10:04:26;;;;;;;0.60;0.60;;;3.40;99.90;;;;;;4396941;32;20077;-75
2021/01/14 10:06:55;;;;;;;0.30;0.30;;;3.40;99.90;;;;;;4397962;32;20078;-74
2021/01/14 10:09:21;;;;;;;0.65;0.50;;;3.30;99.90;;;;;;4396946;32;20074;-74
2021/01/14 10:11:47;;;;;;;0.45;0.45;;;3.30;99.90;;;;;;4405714;32;20065;-74
2021/01/14 10:14:18;;;;;;;0.98;0.90;;;3.30;99.90;;;;;;4396317;32;20091;-75
2021/01/14 10:16:44;;;;;;;0.37;0.37;;;3.30;99.90;;;;;;4392184;32;20082;-74
2021/01/14 10:19:11;;;;;;;0.30;0.30;;;3.20;99.90;;;;;;4397903;32;20070;-74
2021/01/14 10:21:38;;;;;;;0.43;0.43;;;3.20;99.90;;;;;;4398835;32;20130;-74
2021/01/14 10:24:05;;;;;;;0.40;0.40;;;3.30;99.90;;;;;;4398338;32;20095;-74
2021/01/14 10:26:30;;;;;;;0.40;0.40;;;3.40;99.90;;;;;;4397686;32;20066;-75
2021/01/14 10:28:56;;;;;;;1.10;1.00;;;3.40;99.90;;;;;;4398341;32;20392;-76
2021/01/14 10:31:39;;;;;;;0.60;0.60;;;3.40;99.90;;;;;;4398023;32;20381;-74
2021/01/14 10:34:07;;;;;;;1.10;0.70;;;3.30;99.90;;;;;;4397397;32;20234;-76
2021/01/14 10:36:56;;;;;;;0.47;0.47;;;3.40;99.90;;;;;;4397504;32;20121;-74
2021/01/14 10:39:22;;;;;;;3.45;1.20;;;3.40;99.90;;;;;;4400275;32;20074;-74
2021/01/14 10:41:47;;;;;;;0.80;0.57;;;3.40;99.90;;;;;;4398934;32;20377;-74
2021/01/14 10:44:13;;;;;;;1.00;0.82;;;3.40;99.90;;;;;;4399542;32;20078;-74
2021/01/14 10:46:41;;;;;;;3.22;0.70;;;3.40;99.90;;;;;;4398926;32;20063;-75
2021/01/14 10:49:16;;;;;;;0.50;0.50;;;3.30;99.90;;;;;;4395354;32;20167;-74
2021/01/14 10:51:42;;;;;;;0.55;0.45;;;3.30;99.90;;;;;;4397464;32;20070;-74
2021/01/14 10:54:08;;;;;;;0.50;0.50;;;3.30;99.90;;;;;;4398245;32;20110;-74
2021/01/14 10:56:50;;;;;;;1.92;0.70;;;3.30;99.90;;;;;;4400571;32;20062;-75
2021/01/14 10:59:22;;;;;;;0.65;0.65;;;3.40;99.90;;;;;;4396979;32;20085;-75
2021/01/14 11:02:06;;;;;;;0.60;0.60;;;3.40;99.90;;;;;;4400739;32;20065;-74
2021/01/14 11:04:32;;;;;;;0.40;0.40;;;3.50;99.90;;;;;;4399564;32;20062;-74
2021/01/14 11:06:57;;;;;;;0.55;0.55;;;3.50;99.90;;;;;;4392486;32;20066;-74
2021/01/14 11:09:23;;;;;;;0.80;0.80;;;3.40;99.90;;;;;;4397767;32;20400;-74
2021/01/14 11:11:49;;;;;;;2.30;0.90;;;3.50;99.90;;;;;;4395173;32;20061;-74
2021/01/14 11:14:15;;;;;;;0.75;0.70;;;3.60;99.90;;;;;;4400508;32;20075;-74
2021/01/14 11:16:41;;;;;;;0.30;0.30;;;3.60;99.90;;;;;;4400247;32;20066;-75
2021/01/14 11:19:07;;;;;;;0.50;0.50;;;3.50;99.90;;;;;;4399537;32;20082;-74
2021/01/14 11:21:34;;;;;;;0.40;0.40;;;3.50;99.90;;;;;;4400304;32;20073;-74
2021/01/14 11:24:01;;;;;;;0.50;0.50;;;3.40;99.90;;;;;;4400218;32;20406;-75
2021/01/14 11:26:27;;;;;;;0.50;0.50;;;3.50;99.90;;;;;;4399448;32;20066;-74
2021/01/14 11:28:53;;;;;;;0.40;0.40;;;3.50;99.90;;;;;;4399869;32;20074;-75
2021/01/14 11:31:20;;;;;;;1.00;0.93;;;3.50;99.90;;;;;;4400752;32;20069;-74
2021/01/14 11:33:46;;;;;;;0.60;0.60;;;3.40;99.90;;;;;;4400083;32;20118;-74
2021/01/14 11:36:14;;;;;;;0.32;0.32;;;3.40;99.90;;;;;;4400265;32;20063;-75
2021/01/14 11:38:41;;;;;;;1.17;0.65;;;3.30;99.90;;;;;;4398892;32;20078;-74
2021/01/14 11:41:07;;;;;;;0.47;0.47;;;3.40;99.90;;;;;;4398769;32;20153;-75
2021/01/14 11:43:33;;;;;;;2.87;0.82;;;3.50;99.90;;;;;;4400900;32;20057;-75
2021/01/14 11:45:59;;;;;;;1.42;1.00;;;3.60;99.90;;;;;;4394822;32;20130;-74
2021/01/14 11:48:24;;;;;;;0.40;0.40;;;3.60;99.90;;;;;;4384416;32;20516;-74
2021/01/14 11:50:50;;;;;;;2.30;1.37;;;3.60;99.90;;;;;;4390991;32;20120;-74
2021/01/14 11:53:16;;;;;;;0.90;0.75;;;3.70;99.90;;;;;;4400149;32;20169;-74
2021/01/14 11:55:41;;;;;;;0.62;0.40;;;3.70;99.90;;;;;;4399532;32;20074;-74
2021/01/14 11:58:06;;;;;;;6.80;1.10;;;3.80;99.90;;;;;;4400216;32;20082;-74
2021/01/14 12:00:32;;;;;;;1.00;0.95;;;3.80;99.90;;;;;;4400815;32;20500;-74
2021/01/14 12:02:58;;;;;;;1.12;0.68;;;3.80;99.90;;;;;;4400602;32;20083;-74
2021/01/14 12:05:23;;;;;;;0.50;0.50;;;3.80;99.90;;;;;;4399896;32;20452;-74
2021/01/14 12:07:49;;;;;;;0.50;0.50;;;3.70;99.90;;;;;;4400501;32;20086;-74
2021/01/14 12:10:14;;;;;;;0.50;0.50;;;3.70;99.90;;;;;;4400225;32;20065;-73
2021/01/14 12:12:40;;;;;;;0.60;0.60;;;3.70;99.90;;;;;;4414002;32;20066;-74
2021/01/14 12:15:07;;;;;;;0.98;0.65;;;3.70;99.90;;;;;;4413736;32;20136;-74
2021/01/14 12:17:33;;;;;;;1.52;0.77;;;3.60;99.90;;;;;;4400647;32;20062;-74
2021/01/14 12:19:59;;;;;;;2.15;0.65;;;3.60;99.90;;;;;;4396815;32;20077;-74
2021/01/14 12:22:24;;;;;;;0.70;0.70;;;3.60;99.90;;;;;;4396831;32;20577;-74
2021/01/14 12:24:50;;;;;;;0.60;0.60;;;3.60;99.90;;;;;;4399265;32;20085;-76
2021/01/14 12:27:15;;;;;;;0.70;0.70;;;3.50;99.90;;;;;;4398433;32;20061;-75
2021/01/14 12:29:41;;;;;;;0.50;0.50;;;3.50;99.90;;;;;;4402039;32;20077;-75
2021/01/14 12:32:07;;;;;;;0.60;0.60;;;3.50;99.90;;;;;;4400140;32;20082;-74
2021/01/14 12:34:33;;;;;;;0.40;0.40;;;3.60;99.90;;;;;;4398605;32;20523;-75
2021/01/14 12:36:58;;;;;;;0.40;0.40;;;3.50;99.90;;;;;;4397317;32;20069;-74
2021/01/14 12:39:25;;;;;;;0.73;0.73;;;3.50;99.90;;;;;;4404351;32;20086;-75
2021/01/14 12:41:51;;;;;;;0.40;0.40;;;3.50;99.90;;;;;;4398157;32;20076;-73
2021/01/14 12:44:17;;;;;;;0.50;0.50;;;3.40;99.90;;;;;;4399228;32;20083;-74
2021/01/14 12:46:45;;;;;;;0.40;0.40;;;3.40;99.90;;;;;;4399359;32;20481;-74
2021/01/14 12:49:13;;;;;;;0.32;0.32;;;3.40;99.90;;;;;;4397317;32;20085;-74
2021/01/14 12:51:39;;;;;;;0.52;0.52;;;3.50;99.90;;;;;;4394274;32;20121;-74
2021/01/14 12:54:05;;;;;;;0.50;0.50;;;3.40;99.90;;;;;;4395758;32;20161;-74
2021/01/14 12:56:31;;;;;;;0.45;0.45;;;3.40;99.90;;;;;;4392190;32;20170;-74
2021/01/14 12:58:56;;;;;;;2.12;1.10;;;3.30;99.90;;;;;;4399364;32;20078;-74
2021/01/14 13:01:38;;;;;;;0.40;0.40;;;3.30;99.90;;;;;;4391645;32;20208;-75
2021/01/14 13:04:06;;;;;;;0.95;0.82;;;3.40;99.90;;;;;;4391610;32;20081;-75